sensor_id;sensor_type;location;lat;lon;timestamp;pressure;altitude;pressure_sealevel;temperature;humidity
62051;BME280;48008;51.204;6.766;2023-03-14T00:00:22;98671.41;;;10.73;83.58
62051;BME280;48008;51.204;6.766;2023-03-14T00:02:55;98656.50;;;10.79;83.65
62051;BME280;48008;51.204;6.766;2023-03-14T00:05:22;98653.00;;;10.79;83.75
62051;BME280;48008;51.204;6.766;2023-03-14T00:07:49;98640.59;;;10.79;83.65
62051;BME280;48008;51.204;6.766;2023-03-14T00:10:16;98627.13;;;10.81;83.25
62051;BME280;48008;51.204;6.766;2023-03-14T00:12:43;98621.81;;;10.74;82.55
62051;BME280;48008;51.204;6.766;2023-03-14T00:15:10;98629.97;;;10.79;83.31
62051;BME280;48008;51.204;6.766;2023-03-14T00:17:38;98633.84;;;10.76;82.74
62051;BME280;48008;51.204;6.766;2023-03-14T00:20:06;98642.19;;;10.87;82.42
62051;BME280;48008;51.204;6.766;2023-03-14T00:22:35;98647.31;;;10.82;83.32
62051;BME280;48008;51.204;6.766;2023-03-14T00:25:02;98659.16;;;10.72;83.28
62051;BME280;48008;51.204;6.766;2023-03-14T00:27:29;98666.06;;;10.80;82.86
62051;BME280;48008;51.204;6.766;2023-03-14T00:29:56;98678.53;;;10.80;83.01
62051;BME280;48008;51.204;6.766;2023-03-14T00:32:23;98702.19;;;10.81;83.53
62051;BME280;48008;51.204;6.766;2023-03-14T00:34:50;98689.13;;;10.93;84.32
62051;BME280;48008;51.204;6.766;2023-03-14T00:37:17;98728.28;;;10.91;88.39
62051;BME280;48008;51.204;6.766;2023-03-14T00:39:43;98757.06;;;10.67;93.55
62051;BME280;48008;51.204;6.766;2023-03-14T00:42:10;98745.69;;;10.05;98.53
62051;BME280;48008;51.204;6.766;2023-03-14T00:44:37;98741.19;;;9.92;100.00
62051;BME280;48008;51.204;6.766;2023-03-14T00:47:06;98722.00;;;9.84;100.00
62051;BME280;48008;51.204;6.766;2023-03-14T00:49:33;98715.09;;;9.83;100.00
62051;BME280;48008;51.204;6.766;2023-03-14T00:52:01;98716.03;;;9.68;100.00
62051;BME280;48008;51.204;6.766;2023-03-14T00:54:28;98711.94;;;9.59;100.00
62051;BME280;48008;51.204;6.766;2023-03-14T00:56:55;98701.50;;;9.44;100.00
62051;BME280;48008;51.204;6.766;2023-03-14T00:59:21;98704.66;;;9.33;100.00
62051;BME280;48008;51.204;6.766;2023-03-14T01:01:48;98702.06;;;9.39;100.00
62051;BME280;48008;51.204;6.766;2023-03-14T01:04:14;98697.53;;;9.27;100.00
62051;BME280;48008;51.204;6.766;2023-03-14T01:06:41;98689.78;;;9.25;100.00
62051;BME280;48008;51.204;6.766;2023-03-14T01:09:09;98688.91;;;9.18;100.00
62051;BME280;48008;51.204;6.766;2023-03-14T01:11:37;98683.81;;;9.10;100.00
62051;BME280;48008;51.204;6.766;2023-03-14T01:14:03;98683.81;;;9.16;100.00
62051;BME280;48008;51.204;6.766;2023-03-14T01:16:33;98690.28;;;9.07;100.00
62051;BME280;48008;51.204;6.766;2023-03-14T01:19:02;98690.44;;;8.99;100.00
62051;BME280;48008;51.204;6.766;2023-03-14T01:21:32;98701.94;;;8.84;100.00
62051;BME280;48008;51.204;6.766;2023-03-14T01:24:00;98696.22;;;8.81;100.00
62051;BME280;48008;51.204;6.766;2023-03-14T01:26:30;98695.00;;;8.83;100.00
62051;BME280;48008;51.204;6.766;2023-03-14T01:28:58;98670.66;;;8.88;100.00
62051;BME280;48008;51.204;6.766;2023-03-14T01:31:26;98670.72;;;9.01;100.00
62051;BME280;48008;51.204;6.766;2023-03-14T01:33:53;98669.84;;;8.94;100.00
62051;BME280;48008;51.204;6.766;2023-03-14T01:36:20;98652.63;;;9.05;100.00
62051;BME280;48008;51.204;6.766;2023-03-14T01:38:47;98657.13;;;9.05;100.00
62051;BME280;48008;51.204;6.766;2023-03-14T01:41:19;98653.00;;;9.02;100.00
62051;BME280;48008;51.204;6.766;2023-03-14T01:43:47;98658.97;;;9.11;100.00
62051;BME280;48008;51.204;6.766;2023-03-14T01:46:21;98652.69;;;9.12;100.00
62051;BME280;48008;51.204;6.766;2023-03-14T01:49:03;98659.44;;;9.21;100.00
62051;BME280;48008;51.204;6.766;2023-03-14T01:51:55;98657.84;;;9.27;100.00
62051;BME280;48008;51.204;6.766;2023-03-14T01:54:33;98660.91;;;9.30;100.00
62051;BME280;48008;51.204;6.766;2023-03-14T01:57:10;98640.59;;;9.37;100.00
62051;BME280;48008;51.204;6.766;2023-03-14T01:59:40;98648.28;;;9.32;100.00
62051;BME280;48008;51.204;6.766;2023-03-14T02:02:09;98645.06;;;9.37;100.00
62051;BME280;48008;51.204;6.766;2023-03-14T02:04:39;98637.94;;;9.37;100.00
62051;BME280;48008;51.204;6.766;2023-03-14T02:07:27;98646.25;;;9.34;100.00
62051;BME280;48008;51.204;6.766;2023-03-14T02:10:07;98646.03;;;9.29;99.93
62051;BME280;48008;51.204;6.766;2023-03-14T02:12:34;98641.16;;;9.33;100.00
62051;BME280;48008;51.204;6.766;2023-03-14T02:15:10;98650.56;;;9.35;99.88
62051;BME280;48008;51.204;6.766;2023-03-14T02:17:49;98654.59;;;9.31;100.00
62051;BME280;48008;51.204;6.766;2023-03-14T02:20:44;98650.50;;;9.29;99.88
62051;BME280;48008;51.204;6.766;2023-03-14T02:23:16;98647.47;;;9.32;100.00
62051;BME280;48008;51.204;6.766;2023-03-14T02:25:55;98645.25;;;9.35;98.42
62051;BME280;48008;51.204;6.766;2023-03-14T02:28:23;98645.81;;;9.24;99.74
62051;BME280;48008;51.204;6.766;2023-03-14T02:30:54;98657.22;;;9.25;100.00
62051;BME280;48008;51.204;6.766;2023-03-14T02:33:21;98663.69;;;9.22;100.00
62051;BME280;48008;51.204;6.766;2023-03-14T02:35:53;98656.19;;;9.19;100.00
62051;BME280;48008;51.204;6.766;2023-03-14T02:38:41;98660.88;;;9.23;100.00
62051;BME280;48008;51.204;6.766;2023-03-14T02:41:11;98650.03;;;9.18;100.00
62051;BME280;48008;51.204;6.766;2023-03-14T02:43:43;98647.25;;;9.27;100.00
62051;BME280;48008;51.204;6.766;2023-03-14T02:46:14;98650.47;;;9.22;100.00
62051;BME280;48008;51.204;6.766;2023-03-14T02:48:47;98640.94;;;9.28;100.00
62051;BME280;48008;51.204;6.766;2023-03-14T02:51:16;98635.25;;;9.31;100.00
62051;BME280;48008;51.204;6.766;2023-03-14T02:53:46;98640.78;;;9.36;99.45
62051;BME280;48008;51.204;6.766;2023-03-14T02:56:14;98635.47;;;9.36;100.00
62051;BME280;48008;51.204;6.766;2023-03-14T02:58:40;98640.75;;;9.29;99.85
62051;BME280;48008;51.204;6.766;2023-03-14T03:01:18;98633.22;;;9.26;100.00
62051;BME280;48008;51.204;6.766;2023-03-14T03:03:45;98631.19;;;9.28;100.00
62051;BME280;48008;51.204;6.766;2023-03-14T03:06:12;98624.66;;;9.31;99.56
62051;BME280;48008;51.204;6.766;2023-03-14T03:08:39;98618.72;;;9.22;99.90
62051;BME280;48008;51.204;6.766;2023-03-14T03:11:06;98622.22;;;9.29;100.00
62051;BME280;48008;51.204;6.766;2023-03-14T03:13:34;98617.97;;;9.35;100.00
62051;BME280;48008;51.204;6.766;2023-03-14T03:16:03;98622.44;;;9.34;100.00
62051;BME280;48008;51.204;6.766;2023-03-14T03:18:30;98620.81;;;9.33;100.00
62051;BME280;48008;51.204;6.766;2023-03-14T03:21:01;98619.19;;;9.32;100.00
62051;BME280;48008;51.204;6.766;2023-03-14T03:23:28;98620.59;;;9.28;100.00
62051;BME280;48008;51.204;6.766;2023-03-14T03:25:57;98616.44;;;9.12;100.00
62051;BME280;48008;51.204;6.766;2023-03-14T03:28:24;98621.50;;;9.07;100.00
62051;BME280;48008;51.204;6.766;2023-03-14T03:30:51;98621.38;;;9.22;100.00
62051;BME280;48008;51.204;6.766;2023-03-14T03:33:18;98622.03;;;9.31;100.00
62051;BME280;48008;51.204;6.766;2023-03-14T03:35:46;98618.53;;;9.23;100.00
62051;BME280;48008;51.204;6.766;2023-03-14T03:38:17;98619.34;;;9.17;100.00
62051;BME280;48008;51.204;6.766;2023-03-14T03:40:45;98620.53;;;9.15;100.00
62051;BME280;48008;51.204;6.766;2023-03-14T03:43:12;98617.06;;;9.14;100.00
62051;BME280;48008;51.204;6.766;2023-03-14T03:45:41;98610.16;;;9.13;100.00
62051;BME280;48008;51.204;6.766;2023-03-14T03:48:08;98616.44;;;9.12;100.00
62051;BME280;48008;51.204;6.766;2023-03-14T03:50:35;98600.34;;;9.07;100.00
62051;BME280;48008;51.204;6.766;2023-03-14T03:53:02;98597.69;;;9.00;100.00
62051;BME280;48008;51.204;6.766;2023-03-14T03:55:29;98597.09;;;9.05;100.00
62051;BME280;48008;51.204;6.766;2023-03-14T03:57:55;98572.22;;;8.93;100.00
62051;BME280;48008;51.204;6.766;2023-03-14T04:00:22;98576.13;;;9.03;100.00
62051;BME280;48008;51.204;6.766;2023-03-14T04:02:49;98572.63;;;8.90;100.00
62051;BME280;48008;51.204;6.766;2023-03-14T04:05:17;98578.34;;;8.93;100.00
62051;BME280;48008;51.204;6.766;2023-03-14T04:07:51;98573.66;;;8.95;100.00
62051;BME280;48008;51.204;6.766;2023-03-14T04:10:23;98561.63;;;8.93;100.00
62051;BME280;48008;51.204;6.766;2023-03-14T04:13:03;98565.06;;;8.87;100.00
62051;BME280;48008;51.204;6.766;2023-03-14T04:15:32;98566.91;;;8.86;100.00
62051;BME280;48008;51.204;6.766;2023-03-14T04:18:03;98566.69;;;8.88;100.00
62051;BME280;48008;51.204;6.766;2023-03-14T04:20:34;98566.25;;;8.84;100.00
62051;BME280;48008;51.204;6.766;2023-03-14T04:23:02;98572.63;;;8.90;100.00
62051;BME280;48008;51.204;6.766;2023-03-14T04:25:29;98559.41;;;8.90;100.00
62051;BME280;48008;51.204;6.766;2023-03-14T04:27:57;98563.28;;;8.94;100.00
62051;BME280;48008;51.204;6.766;2023-03-14T04:30:27;98563.63;;;8.84;100.00
62051;BME280;48008;51.204;6.766;2023-03-14T04:32:58;98564.88;;;8.88;100.00
62051;BME280;48008;51.204;6.766;2023-03-14T04:35:27;98551.47;;;8.90;100.00
62051;BME280;48008;51.204;6.766;2023-03-14T04:37:58;98547.84;;;8.97;100.00
62051;BME280;48008;51.204;6.766;2023-03-14T04:40:25;98552.47;;;8.89;100.00
62051;BME280;48008;51.204;6.766;2023-03-14T04:42:57;98557.50;;;8.77;100.00
62051;BME280;48008;51.204;6.766;2023-03-14T04:45:23;98551.63;;;8.81;100.00
62051;BME280;48008;51.204;6.766;2023-03-14T04:47:50;98551.88;;;8.93;100.00
62051;BME280;48008;51.204;6.766;2023-03-14T04:50:18;98546.78;;;8.92;100.00
62051;BME280;48008;51.204;6.766;2023-03-14T04:52:46;98550.44;;;8.91;100.00
62051;BME280;48008;51.204;6.766;2023-03-14T04:55:12;98541.31;;;9.00;100.00
62051;BME280;48008;51.204;6.766;2023-03-14T04:57:39;98528.09;;;9.00;100.00
62051;BME280;48008;51.204;6.766;2023-03-14T05:00:09;98525.25;;;9.01;100.00
62051;BME280;48008;51.204;6.766;2023-03-14T05:02:45;98514.09;;;9.06;100.00
62051;BME280;48008;51.204;6.766;2023-03-14T05:05:40;98514.50;;;9.03;100.00
62051;BME280;48008;51.204;6.766;2023-03-14T05:08:27;98515.28;;;9.03;100.00
62051;BME280;48008;51.204;6.766;2023-03-14T05:11:03;98508.16;;;8.97;100.00
62051;BME280;48008;51.204;6.766;2023-03-14T05:13:39;98516.28;;;8.96;100.00
62051;BME280;48008;51.204;6.766;2023-03-14T05:16:26;98503.50;;;8.99;100.00
62051;BME280;48008;51.204;6.766;2023-03-14T05:19:00;98505.06;;;8.87;100.00
62051;BME280;48008;51.204;6.766;2023-03-14T05:21:47;98499.19;;;8.98;100.00
62051;BME280;48008;51.204;6.766;2023-03-14T05:24:29;98496.56;;;8.98;100.00
62051;BME280;48008;51.204;6.766;2023-03-14T05:27:07;98496.78;;;9.03;100.00
62051;BME280;48008;51.204;6.766;2023-03-14T05:29:41;98498.63;;;9.03;100.00
62051;BME280;48008;51.204;6.766;2023-03-14T05:32:28;98481.75;;;9.11;100.00
62051;BME280;48008;51.204;6.766;2023-03-14T05:35:16;98481.13;;;9.09;100.00
62051;BME280;48008;51.204;6.766;2023-03-14T05:38:03;98492.34;;;9.11;100.00
62051;BME280;48008;51.204;6.766;2023-03-14T05:40:45;98477.28;;;9.18;100.00
62051;BME280;48008;51.204;6.766;2023-03-14T05:43:25;98485.84;;;9.13;100.00
62051;BME280;48008;51.204;6.766;2023-03-14T05:45:59;98485.00;;;9.06;100.00
62051;BME280;48008;51.204;6.766;2023-03-14T05:48:41;98492.75;;;9.14;100.00
62051;BME280;48008;51.204;6.766;2023-03-14T05:51:28;98489.25;;;9.07;100.00
62051;BME280;48008;51.204;6.766;2023-03-14T05:54:14;98476.84;;;9.08;100.00
62051;BME280;48008;51.204;6.766;2023-03-14T05:56:48;98482.56;;;9.11;100.00
62051;BME280;48008;51.204;6.766;2023-03-14T05:59:38;98483.19;;;9.20;100.00
62051;BME280;48008;51.204;6.766;2023-03-14T06:02:16;98485.84;;;9.13;100.00
62051;BME280;48008;51.204;6.766;2023-03-14T06:04:53;98491.13;;;9.13;100.00
62051;BME280;48008;51.204;6.766;2023-03-14T06:07:19;98480.75;;;9.18;100.00
62051;BME280;48008;51.204;6.766;2023-03-14T06:09:46;98479.94;;;9.18;100.00
62051;BME280;48008;51.204;6.766;2023-03-14T06:12:16;98483.00;;;9.21;100.00
62051;BME280;48008;51.204;6.766;2023-03-14T06:14:45;98483.22;;;9.27;100.00
62051;BME280;48008;51.204;6.766;2023-03-14T06:17:12;98481.56;;;9.26;100.00
62051;BME280;48008;51.204;6.766;2023-03-14T06:19:47;98478.94;;;9.26;100.00
62051;BME280;48008;51.204;6.766;2023-03-14T06:22:14;98480.34;;;9.21;100.00
62051;BME280;48008;51.204;6.766;2023-03-14T06:24:43;98484.25;;;9.32;100.00
62051;BME280;48008;51.204;6.766;2023-03-14T06:27:09;98479.97;;;9.25;100.00
62051;BME280;48008;51.204;6.766;2023-03-14T06:29:36;98485.06;;;9.26;100.00
62051;BME280;48008;51.204;6.766;2023-03-14T06:32:03;98487.31;;;9.43;100.00
62051;BME280;48008;51.204;6.766;2023-03-14T06:34:31;98492.00;;;9.40;100.00
62051;BME280;48008;51.204;6.766;2023-03-14T06:36:58;98490.78;;;9.43;100.00
62051;BME280;48008;51.204;6.766;2023-03-14T06:39:25;98504.22;;;9.48;99.69
62051;BME280;48008;51.204;6.766;2023-03-14T06:42:01;98495.06;;;9.51;100.00
62051;BME280;48008;51.204;6.766;2023-03-14T06:44:28;98495.06;;;9.51;100.00
62051;BME280;48008;51.204;6.766;2023-03-14T06:46:55;98502.00;;;9.52;100.00
62051;BME280;48008;51.204;6.766;2023-03-14T06:49:22;98496.91;;;9.64;100.00
62051;BME280;48008;51.204;6.766;2023-03-14T06:51:52;98493.66;;;9.68;99.60
62051;BME280;48008;51.204;6.766;2023-03-14T06:54:18;98503.63;;;9.59;99.40
62051;BME280;48008;51.204;6.766;2023-03-14T06:56:46;98496.28;;;9.61;100.00
62051;BME280;48008;51.204;6.766;2023-03-14T06:59:13;98493.47;;;9.70;99.65
62051;BME280;48008;51.204;6.766;2023-03-14T07:01:40;98498.94;;;9.61;99.53
62051;BME280;48008;51.204;6.766;2023-03-14T07:04:10;98506.88;;;9.61;100.00
62051;BME280;48008;51.204;6.766;2023-03-14T07:06:42;98512.38;;;9.60;100.00
62051;BME280;48008;51.204;6.766;2023-03-14T07:09:11;98502.00;;;9.52;100.00
62051;BME280;48008;51.204;6.766;2023-03-14T07:11:41;98509.50;;;9.55;100.00
62051;BME280;48008;51.204;6.766;2023-03-14T07:14:08;98501.41;;;9.70;100.00
62051;BME280;48008;51.204;6.766;2023-03-14T07:16:35;98507.69;;;9.62;100.00
62051;BME280;48008;51.204;6.766;2023-03-14T07:19:02;98513.38;;;9.66;100.00
62051;BME280;48008;51.204;6.766;2023-03-14T07:21:30;98511.97;;;9.63;100.00
62051;BME280;48008;51.204;6.766;2023-03-14T07:23:59;98518.06;;;9.64;100.00
62051;BME280;48008;51.204;6.766;2023-03-14T07:26:26;98518.06;;;9.64;100.00
62051;BME280;48008;51.204;6.766;2023-03-14T07:28:53;98523.16;;;9.78;100.00
62051;BME280;48008;51.204;6.766;2023-03-14T07:31:21;98529.91;;;9.94;100.00
62051;BME280;48008;51.204;6.766;2023-03-14T07:33:48;98531.56;;;9.95;100.00
62051;BME280;48008;51.204;6.766;2023-03-14T07:36:17;98530.53;;;10.10;100.00
62051;BME280;48008;51.204;6.766;2023-03-14T07:38:44;98528.28;;;10.00;100.00
62051;BME280;48008;51.204;6.766;2023-03-14T07:41:31;98532.38;;;10.03;100.00
62051;BME280;48008;51.204;6.766;2023-03-14T07:44:18;98541.94;;;10.04;100.00
62051;BME280;48008;51.204;6.766;2023-03-14T07:46:44;98536.22;;;10.00;100.00
62051;BME280;48008;51.204;6.766;2023-03-14T07:49:11;98527.06;;;10.03;100.00
62051;BME280;48008;51.204;6.766;2023-03-14T07:51:38;98537.66;;;10.03;100.00
62051;BME280;48008;51.204;6.766;2023-03-14T07:54:04;98546.59;;;10.22;100.00
62051;BME280;48008;51.204;6.766;2023-03-14T07:56:31;98546.63;;;10.28;100.00
62051;BME280;48008;51.204;6.766;2023-03-14T07:58:58;98541.72;;;10.18;100.00
62051;BME280;48008;51.204;6.766;2023-03-14T08:01:25;98549.47;;;10.27;100.00
62051;BME280;48008;51.204;6.766;2023-03-14T08:03:51;98548.47;;;10.28;100.00
62051;BME280;48008;51.204;6.766;2023-03-14T08:06:18;98546.59;;;10.22;100.00
62051;BME280;48008;51.204;6.766;2023-03-14T08:08:44;98545.41;;;10.24;100.00
62051;BME280;48008;51.204;6.766;2023-03-14T08:11:12;98544.56;;;10.44;100.00
62051;BME280;48008;51.204;6.766;2023-03-14T08:13:38;98547.81;;;10.46;100.00
62051;BME280;48008;51.204;6.766;2023-03-14T08:16:06;98547.81;;;10.52;100.00
62051;BME280;48008;51.204;6.766;2023-03-14T08:18:33;98544.56;;;10.57;99.90
62051;BME280;48008;51.204;6.766;2023-03-14T08:21:03;98551.06;;;10.54;98.77
62051;BME280;48008;51.204;6.766;2023-03-14T08:23:31;98549.63;;;10.59;100.00
62051;BME280;48008;51.204;6.766;2023-03-14T08:25:58;98550.88;;;10.49;99.26
62051;BME280;48008;51.204;6.766;2023-03-14T08:28:25;98552.31;;;10.38;100.00
62051;BME280;48008;51.204;6.766;2023-03-14T08:30:57;98558.63;;;10.51;100.00
62051;BME280;48008;51.204;6.766;2023-03-14T08:33:24;98552.09;;;10.60;100.00
62051;BME280;48008;51.204;6.766;2023-03-14T08:35:53;98551.28;;;10.66;99.13
62051;BME280;48008;51.204;6.766;2023-03-14T08:38:19;98548.22;;;10.63;98.80
62051;BME280;48008;51.204;6.766;2023-03-14T08:40:47;98567.59;;;10.63;99.82
62051;BME280;48008;51.204;6.766;2023-03-14T08:43:13;98557.38;;;10.60;99.80
62051;BME280;48008;51.204;6.766;2023-03-14T08:45:40;98560.47;;;10.50;100.00
62051;BME280;48008;51.204;6.766;2023-03-14T08:48:07;98565.34;;;10.60;100.00
62051;BME280;48008;51.204;6.766;2023-03-14T08:50:33;98560.28;;;10.52;100.00
62051;BME280;48008;51.204;6.766;2023-03-14T08:53:00;98565.16;;;10.48;100.00
62051;BME280;48008;51.204;6.766;2023-03-14T08:55:27;98576.16;;;10.25;100.00
62051;BME280;48008;51.204;6.766;2023-03-14T08:57:54;98568.81;;;10.07;100.00
62051;BME280;48008;51.204;6.766;2023-03-14T09:00:21;98589.41;;;10.18;100.00
62051;BME280;48008;51.204;6.766;2023-03-14T09:02:48;98592.47;;;10.15;100.00
62051;BME280;48008;51.204;6.766;2023-03-14T09:05:15;98600.41;;;10.22;100.00
62051;BME280;48008;51.204;6.766;2023-03-14T09:07:41;98610.22;;;10.08;100.00
62051;BME280;48008;51.204;6.766;2023-03-14T09:10:09;98613.03;;;10.00;100.00
62051;BME280;48008;51.204;6.766;2023-03-14T09:12:36;98617.72;;;9.98;100.00
62051;BME280;48008;51.204;6.766;2023-03-14T09:15:03;98612.41;;;9.85;100.00
62051;BME280;48008;51.204;6.766;2023-03-14T09:17:30;98635.84;;;9.81;100.00
62051;BME280;48008;51.204;6.766;2023-03-14T09:19:57;98651.06;;;9.66;100.00
62051;BME280;48008;51.204;6.766;2023-03-14T09:22:25;98677.91;;;9.14;100.00
62051;BME280;48008;51.204;6.766;2023-03-14T09:24:52;98690.81;;;8.96;100.00
62051;BME280;48008;51.204;6.766;2023-03-14T09:27:19;98709.44;;;8.81;100.00
62051;BME280;48008;51.204;6.766;2023-03-14T09:29:46;98727.00;;;8.67;100.00
62051;BME280;48008;51.204;6.766;2023-03-14T09:32:13;98739.78;;;8.63;100.00
62051;BME280;48008;51.204;6.766;2023-03-14T09:34:39;98749.63;;;8.48;100.00
62051;BME280;48008;51.204;6.766;2023-03-14T09:37:07;98749.19;;;8.44;100.00
62051;BME280;48008;51.204;6.766;2023-03-14T09:39:34;98776.13;;;8.40;100.00
62051;BME280;48008;51.204;6.766;2023-03-14T09:42:05;98781.78;;;8.15;100.00
62051;BME280;48008;51.204;6.766;2023-03-14T09:44:37;98790.59;;;8.22;100.00
62051;BME280;48008;51.204;6.766;2023-03-14T09:47:06;98792.78;;;8.19;100.00
62051;BME280;48008;51.204;6.766;2023-03-14T09:49:37;98802.16;;;8.21;100.00
62051;BME280;48008;51.204;6.766;2023-03-14T09:52:12;98814.28;;;8.16;100.00
62051;BME280;48008;51.204;6.766;2023-03-14T09:54:46;98826.91;;;8.20;100.00
62051;BME280;48008;51.204;6.766;2023-03-14T09:57:17;98834.94;;;8.27;100.00
62051;BME280;48008;51.204;6.766;2023-03-14T09:59:46;98839.94;;;8.22;100.00
62051;BME280;48008;51.204;6.766;2023-03-14T10:02:19;98849.34;;;8.24;100.00
62051;BME280;48008;51.204;6.766;2023-03-14T10:04:49;98863.47;;;8.17;100.00
62051;BME280;48008;51.204;6.766;2023-03-14T10:07:19;98880.03;;;8.11;100.00
62051;BME280;48008;51.204;6.766;2023-03-14T10:09:50;98883.59;;;8.18;100.00
62051;BME280;48008;51.204;6.766;2023-03-14T10:12:18;98895.97;;;8.17;100.00
62051;BME280;48008;51.204;6.766;2023-03-14T10:14:49;98905.47;;;8.12;100.00
62051;BME280;48008;51.204;6.766;2023-03-14T10:17:17;98909.72;;;8.13;100.00
62051;BME280;48008;51.204;6.766;2023-03-14T10:19:59;98917.56;;;8.21;100.00
62051;BME280;48008;51.204;6.766;2023-03-14T10:22:30;98931.84;;;8.26;100.00
62051;BME280;48008;51.204;6.766;2023-03-14T10:25:01;98947.41;;;8.36;100.00
62051;BME280;48008;51.204;6.766;2023-03-14T10:27:30;98941.63;;;8.26;100.00
62051;BME280;48008;51.204;6.766;2023-03-14T10:30:00;98957.63;;;8.24;98.73
62051;BME280;48008;51.204;6.766;2023-03-14T10:32:33;98967.75;;;8.06;100.00
62051;BME280;48008;51.204;6.766;2023-03-14T10:35:11;98987.66;;;7.94;100.00
62051;BME280;48008;51.204;6.766;2023-03-14T10:37:56;99001.34;;;7.97;100.00
62051;BME280;48008;51.204;6.766;2023-03-14T10:40:28;98990.31;;;7.94;100.00
62051;BME280;48008;51.204;6.766;2023-03-14T10:42:58;99001.47;;;7.81;100.00
62051;BME280;48008;51.204;6.766;2023-03-14T10:45:33;99009.69;;;7.86;100.00
62051;BME280;48008;51.204;6.766;2023-03-14T10:48:22;99021.41;;;7.83;100.00
62051;BME280;48008;51.204;6.766;2023-03-14T10:50:55;99038.53;;;7.87;100.00
62051;BME280;48008;51.204;6.766;2023-03-14T10:53:22;99035.97;;;7.79;100.00
62051;BME280;48008;51.204;6.766;2023-03-14T10:55:51;99051.22;;;7.69;100.00
62051;BME280;48008;51.204;6.766;2023-03-14T10:58:20;99065.91;;;7.72;100.00
62051;BME280;48008;51.204;6.766;2023-03-14T11:00:55;99071.94;;;7.57;100.00
62051;BME280;48008;51.204;6.766;2023-03-14T11:03:26;99096.38;;;7.51;100.00
62051;BME280;48008;51.204;6.766;2023-03-14T11:06:02;99111.38;;;7.50;100.00
62051;BME280;48008;51.204;6.766;2023-03-14T11:09:25;99126.09;;;7.14;100.00
62051;BME280;48008;51.204;6.766;2023-03-14T11:11:39;99136.22;;;6.94;100.00
62051;BME280;48008;51.204;6.766;2023-03-14T11:14:28;99138.69;;;6.95;100.00
62051;BME280;48008;51.204;6.766;2023-03-14T11:23:20;99163.06;;;6.97;100.00
62051;BME280;48008;51.204;6.766;2023-03-14T11:28:47;99188.72;;;7.03;100.00
62051;BME280;48008;51.204;6.766;2023-03-14T11:31:24;99202.59;;;6.89;100.00
62051;BME280;48008;51.204;6.766;2023-03-14T11:34:01;99221.53;;;6.92;100.00
62051;BME280;48008;51.204;6.766;2023-03-14T11:36:33;99217.44;;;6.82;100.00
62051;BME280;48008;51.204;6.766;2023-03-14T11:39:11;99221.09;;;6.56;100.00
62051;BME280;48008;51.204;6.766;2023-03-14T11:41:42;99231.81;;;6.63;100.00
62051;BME280;48008;51.204;6.766;2023-03-14T11:46:59;99244.31;;;6.69;100.00
62051;BME280;48008;51.204;6.766;2023-03-14T11:49:38;99254.03;;;6.85;99.53
62051;BME280;48008;51.204;6.766;2023-03-14T11:52:16;99261.94;;;6.93;96.69
62051;BME280;48008;51.204;6.766;2023-03-14T11:54:52;99267.84;;;7.03;99.21
62051;BME280;48008;51.204;6.766;2023-03-14T11:57:22;99277.75;;;6.93;94.44
62051;BME280;48008;51.204;6.766;2023-03-14T11:59:58;99294.53;;;7.00;96.43
62051;BME280;48008;51.204;6.766;2023-03-14T12:03:14;99300.63;;;6.92;94.25
62051;BME280;48008;51.204;6.766;2023-03-14T12:08:42;99324.38;;;6.68;96.79
62051;BME280;48008;51.204;6.766;2023-03-14T12:11:36;99322.88;;;6.65;96.98
62051;BME280;48008;51.204;6.766;2023-03-14T12:14:19;99342.66;;;6.78;95.72
62051;BME280;48008;51.204;6.766;2023-03-14T12:16:47;99350.41;;;6.79;94.33
62051;BME280;48008;51.204;6.766;2023-03-14T12:19:27;99357.50;;;6.79;92.33
62051;BME280;48008;51.204;6.766;2023-03-14T12:21:59;99366.06;;;6.81;91.72
62051;BME280;48008;51.204;6.766;2023-03-14T12:24:30;99372.16;;;7.30;90.36
62051;BME280;48008;51.204;6.766;2023-03-14T12:27:02;99393.84;;;8.30;85.19
62051;BME280;48008;51.204;6.766;2023-03-14T12:29:29;99390.44;;;8.13;85.49
62051;BME280;48008;51.204;6.766;2023-03-14T12:32:07;99398.81;;;7.60;84.33
62051;BME280;48008;51.204;6.766;2023-03-14T12:34:40;99406.28;;;7.57;84.18
62051;BME280;48008;51.204;6.766;2023-03-14T12:40:37;99419.56;;;7.80;82.10
62051;BME280;48008;51.204;6.766;2023-03-14T12:42:57;99439.84;;;7.96;82.18
62051;BME280;48008;51.204;6.766;2023-03-14T12:48:22;99458.16;;;7.97;80.40
62051;BME280;48008;51.204;6.766;2023-03-14T12:51:02;99469.22;;;7.93;77.20
62051;BME280;48008;51.204;6.766;2023-03-14T12:54:21;99468.56;;;7.91;80.16
62051;BME280;48008;51.204;6.766;2023-03-14T12:59:46;99502.88;;;7.17;85.34
62051;BME280;48008;51.204;6.766;2023-03-14T13:02:27;99522.94;;;6.93;88.28
62051;BME280;48008;51.204;6.766;2023-03-14T13:05:09;99530.69;;;6.52;90.38
62051;BME280;48008;51.204;6.766;2023-03-14T13:10:42;99543.25;;;6.66;91.70
62051;BME280;48008;51.204;6.766;2023-03-14T13:13:21;99555.88;;;6.54;92.04
62051;BME280;48008;51.204;6.766;2023-03-14T13:15:53;99558.47;;;6.46;91.85
62051;BME280;48008;51.204;6.766;2023-03-14T13:18:37;99572.88;;;6.34;89.79
62051;BME280;48008;51.204;6.766;2023-03-14T13:21:16;99577.63;;;6.30;92.38
62051;BME280;48008;51.204;6.766;2023-03-14T13:24:02;99585.94;;;6.44;90.64
62051;BME280;48008;51.204;6.766;2023-03-14T13:26:35;99583.09;;;6.63;90.77
62051;BME280;48008;51.204;6.766;2023-03-14T13:31:55;99608.19;;;7.77;85.10
62051;BME280;48008;51.204;6.766;2023-03-14T13:34:26;99607.22;;;7.86;82.02
62051;BME280;48008;51.204;6.766;2023-03-14T13:36:56;99611.03;;;8.17;84.46
62051;BME280;48008;51.204;6.766;2023-03-14T13:39:26;99618.16;;;8.97;79.87
62051;BME280;48008;51.204;6.766;2023-03-14T13:41:58;99622.63;;;10.66;71.07
62051;BME280;48008;51.204;6.766;2023-03-14T13:44:29;99627.06;;;10.36;72.52
62051;BME280;48008;51.204;6.766;2023-03-14T13:47:00;99631.91;;;10.47;75.48
62051;BME280;48008;51.204;6.766;2023-03-14T13:49:29;99636.16;;;9.95;74.10
62051;BME280;48008;51.204;6.766;2023-03-14T13:51:58;99635.75;;;9.21;75.60